createdAt,value
2018-09-02T00:00:00.563Z,21.40
2018-09-02T00:02:30.449Z,21.40
2018-09-02T00:05:00.314Z,21.40
2018-09-02T00:07:30.192Z,21.40
2018-09-02T00:10:00.074Z,21.30
2018-09-02T00:12:29.950Z,21.40
2018-09-02T00:14:59.803Z,21.30
2018-09-02T00:17:29.671Z,21.30
2018-09-02T00:19:59.534Z,21.30
2018-09-02T00:22:29.399Z,21.30
2018-09-02T00:24:59.265Z,21.30
2018-09-02T00:27:29.133Z,21.30
2018-09-02T00:29:59.006Z,21.30
2018-09-02T00:32:28.879Z,21.30
2018-09-02T00:34:58.745Z,21.30
2018-09-02T00:37:29.039Z,21.30
2018-09-02T00:39:58.957Z,21.30
2018-09-02T00:42:28.777Z,21.30
2018-09-02T00:44:58.636Z,21.30
2018-09-02T00:47:28.502Z,21.30
2018-09-02T00:49:58.387Z,21.30
2018-09-02T00:52:28.258Z,21.30
2018-09-02T00:54:58.127Z,21.30
2018-09-02T00:57:27.999Z,21.30
2018-09-02T00:59:57.882Z,21.30
2018-09-02T01:02:27.833Z,21.30
2018-09-02T01:04:57.708Z,21.30
2018-09-02T01:07:27.587Z,21.30
2018-09-02T01:09:57.454Z,21.30
2018-09-02T01:12:27.331Z,21.30
2018-09-02T01:14:57.206Z,21.30
2018-09-02T01:17:27.093Z,21.20
2018-09-02T01:19:56.962Z,21.30
2018-09-02T01:22:26.834Z,21.30
2018-09-02T01:24:56.699Z,21.30
2018-09-02T01:27:26.587Z,21.30
2018-09-02T01:29:56.445Z,21.30
2018-09-02T01:32:26.338Z,21.30
2018-09-02T01:34:56.207Z,21.30
2018-09-02T01:37:26.110Z,21.30
2018-09-02T01:39:56.001Z,21.30
2018-09-02T01:42:25.867Z,21.30
2018-09-02T01:44:55.743Z,21.30
2018-09-02T01:47:25.609Z,21.30
2018-09-02T01:49:55.479Z,21.30
2018-09-02T01:52:25.350Z,21.30
2018-09-02T01:54:55.219Z,21.30
2018-09-02T01:57:25.079Z,21.30
2018-09-02T01:59:54.947Z,21.30
2018-09-02T02:02:24.826Z,21.30
2018-09-02T02:04:54.690Z,21.30
2018-09-02T02:07:24.564Z,21.30
2018-09-02T02:09:54.431Z,21.40
2018-09-02T02:12:24.306Z,21.40
2018-09-02T02:14:54.167Z,21.40
2018-09-02T02:17:24.030Z,21.40
2018-09-02T02:19:53.898Z,21.40
2018-09-02T02:22:23.778Z,21.40
2018-09-02T02:24:53.637Z,21.40
2018-09-02T02:27:23.510Z,21.50
2018-09-02T02:29:53.371Z,21.50
2018-09-02T02:32:23.243Z,21.50
2018-09-02T02:34:53.250Z,21.50
2018-09-02T02:37:23.126Z,21.50
2018-09-02T02:39:52.995Z,21.60
2018-09-02T02:42:22.854Z,21.60
2018-09-02T02:44:52.726Z,21.60
2018-09-02T02:47:22.602Z,21.60
2018-09-02T02:49:52.478Z,21.60
2018-09-02T02:52:25.943Z,21.60
2018-09-02T02:54:55.894Z,21.60
2018-09-02T02:57:25.764Z,21.60
2018-09-02T02:59:55.679Z,21.60
2018-09-02T03:02:25.540Z,21.60
2018-09-02T03:04:55.413Z,21.60
2018-09-02T03:07:25.279Z,21.60
2018-09-02T03:09:55.155Z,21.60
2018-09-02T03:12:25.019Z,21.60
2018-09-02T03:14:54.886Z,21.60
2018-09-02T03:17:24.762Z,21.60
2018-09-02T03:19:54.634Z,21.70
2018-09-02T03:22:24.511Z,21.70
2018-09-02T03:24:54.374Z,21.70
2018-09-02T03:27:24.286Z,21.70
2018-09-02T03:29:54.158Z,21.70
2018-09-02T03:32:24.030Z,21.70
2018-09-02T03:35:00.703Z,21.70
2018-09-02T03:37:30.566Z,21.70
2018-09-02T03:40:00.434Z,21.70
2018-09-02T03:42:30.298Z,21.70
2018-09-02T03:45:00.171Z,21.80
2018-09-02T03:47:30.034Z,21.80
2018-09-02T03:49:59.890Z,21.80
2018-09-02T03:52:29.758Z,21.80
2018-09-02T03:54:59.632Z,21.80
2018-09-02T03:57:29.488Z,21.80
2018-09-02T03:59:59.368Z,21.80
2018-09-02T04:02:29.228Z,21.80
2018-09-02T04:04:59.101Z,21.80
2018-09-02T04:07:28.966Z,21.80
2018-09-02T04:09:58.895Z,21.80
2018-09-02T04:12:28.762Z,21.80
2018-09-02T04:14:58.634Z,21.80
2018-09-02T04:17:28.497Z,21.80
2018-09-02T04:19:58.372Z,21.80
2018-09-02T04:22:28.239Z,21.80
2018-09-02T04:24:58.123Z,21.80
2018-09-02T04:27:27.986Z,21.80
2018-09-02T04:29:57.862Z,21.80
2018-09-02T04:32:27.736Z,21.80
2018-09-02T04:34:57.606Z,21.80
2018-09-02T04:37:27.458Z,21.80
2018-09-02T04:39:57.326Z,21.80
2018-09-02T04:42:27.191Z,21.80
2018-09-02T04:44:57.063Z,21.70
2018-09-02T04:47:26.930Z,21.70
2018-09-02T04:49:56.786Z,21.70
2018-09-02T04:52:26.642Z,21.70
2018-09-02T04:54:56.510Z,21.70
2018-09-02T04:57:26.365Z,21.70
2018-09-02T04:59:56.236Z,21.70
2018-09-02T05:02:26.102Z,21.70
2018-09-02T05:04:55.986Z,21.70
2018-09-02T05:07:26.143Z,21.70
2018-09-02T05:09:56.103Z,21.70
2018-09-02T05:12:25.966Z,21.70
2018-09-02T05:14:56.446Z,21.70
2018-09-02T05:17:30.881Z,21.70
2018-09-02T05:20:00.746Z,21.70
2018-09-02T05:22:31.030Z,21.60
2018-09-02T05:25:00.908Z,21.60
2018-09-02T05:27:30.771Z,21.60
2018-09-02T05:30:00.643Z,21.60
2018-09-02T05:32:30.498Z,21.60
2018-09-02T05:35:00.362Z,21.60
2018-09-02T05:37:30.235Z,21.60
2018-09-02T05:40:00.116Z,21.60
2018-09-02T05:42:29.982Z,21.60
2018-09-02T05:44:59.854Z,21.60
2018-09-02T05:47:29.710Z,21.60
2018-09-02T05:49:59.580Z,21.60
2018-09-02T05:52:29.430Z,21.60
2018-09-02T05:54:59.318Z,21.60
2018-09-02T05:57:29.218Z,21.60
2018-09-02T05:59:59.047Z,21.50
2018-09-02T06:02:28.914Z,21.50
2018-09-02T06:04:58.796Z,21.60
2018-09-02T06:07:28.666Z,21.60
2018-09-02T06:09:58.541Z,21.60
2018-09-02T06:12:28.394Z,21.60
2018-09-02T06:14:58.469Z,21.60
2018-09-02T06:17:28.325Z,21.60
2018-09-02T06:19:58.206Z,21.60
2018-09-02T06:22:28.067Z,21.60
2018-09-02T06:24:57.940Z,21.60
2018-09-02T06:27:27.808Z,21.60
2018-09-02T06:29:57.719Z,21.60
2018-09-02T06:32:27.547Z,21.60
2018-09-02T06:34:57.420Z,21.70
2018-09-02T06:37:27.278Z,21.70
2018-09-02T06:39:57.144Z,21.70
2018-09-02T06:42:27.041Z,21.70
2018-09-02T06:44:56.891Z,21.70
2018-09-02T06:47:26.759Z,21.80
2018-09-02T06:49:56.634Z,21.80
2018-09-02T06:52:26.519Z,21.80
2018-09-02T06:54:56.398Z,21.80
2018-09-02T06:57:27.716Z,21.80
2018-09-02T06:59:57.686Z,21.90
2018-09-02T07:02:27.546Z,21.90
2018-09-02T07:04:57.436Z,21.90
2018-09-02T07:07:27.481Z,21.90
2018-09-02T07:09:57.286Z,21.90
2018-09-02T07:12:27.202Z,21.90
2018-09-02T07:14:57.079Z,21.90
2018-09-02T07:17:26.942Z,21.90
2018-09-02T07:19:56.940Z,21.90
2018-09-02T07:23:29.874Z,21.90
2018-09-02T07:25:59.734Z,21.90
2018-09-02T07:28:29.721Z,21.90
2018-09-02T07:30:59.577Z,21.90
2018-09-02T07:33:29.444Z,21.90
2018-09-02T07:35:59.310Z,21.90
2018-09-02T07:38:29.266Z,21.90
2018-09-02T07:40:59.138Z,21.90
2018-09-02T07:43:29.002Z,21.90
2018-09-02T07:45:58.871Z,22.00
2018-09-02T07:48:28.738Z,22.00
2018-09-02T07:50:58.634Z,22.00
2018-09-02T07:53:28.486Z,22.00
2018-09-02T07:55:58.467Z,22.10
2018-09-02T07:58:28.378Z,22.10
2018-09-02T08:00:58.313Z,22.10
2018-09-02T08:03:28.154Z,22.20
2018-09-02T08:05:58.040Z,22.20
2018-09-02T08:08:27.910Z,22.20
2018-09-02T08:10:57.773Z,22.20
2018-09-02T08:13:27.643Z,22.30
2018-09-02T08:15:57.584Z,22.30
2018-09-02T08:18:27.514Z,22.30
2018-09-02T08:20:57.550Z,22.30
2018-09-02T08:23:27.428Z,22.30
2018-09-02T08:25:57.317Z,22.40
2018-09-02T08:28:27.171Z,22.40
2018-09-02T08:30:57.051Z,22.40
2018-09-02T08:33:26.963Z,22.40
2018-09-02T08:35:56.834Z,22.40
2018-09-02T08:38:26.704Z,22.40
2018-09-02T08:40:56.592Z,22.50
2018-09-02T08:43:26.447Z,22.50
2018-09-02T08:45:56.410Z,22.50
2018-09-02T08:48:26.338Z,22.60
2018-09-02T08:50:56.203Z,22.50
2018-09-02T08:53:26.074Z,22.60
2018-09-02T08:55:55.966Z,22.60
2018-09-02T08:58:25.930Z,22.60
2018-09-02T09:00:55.890Z,22.60
2018-09-02T09:03:25.755Z,22.70
2018-09-02T09:05:55.671Z,22.70
2018-09-02T09:08:25.823Z,22.70
2018-09-02T09:10:56.772Z,22.70
2018-09-02T09:13:26.706Z,22.70
2018-09-02T09:15:56.568Z,22.70
2018-09-02T09:18:26.454Z,22.70
2018-09-02T09:20:56.438Z,22.70
2018-09-02T09:23:26.357Z,22.70
2018-09-02T09:25:56.242Z,22.70
2018-09-02T09:28:26.106Z,22.70
2018-09-02T09:30:56.050Z,22.70
2018-09-02T09:33:25.910Z,22.70
2018-09-02T09:35:55.891Z,22.70
2018-09-02T09:38:25.875Z,22.70
2018-09-02T09:40:55.755Z,22.70
2018-09-02T09:43:25.622Z,22.70
2018-09-02T09:45:55.610Z,22.70
2018-09-02T09:48:25.687Z,22.70
2018-09-02T09:50:55.680Z,22.70
2018-09-02T09:53:25.698Z,22.70
2018-09-02T09:55:55.657Z,22.80
2018-09-02T09:58:25.526Z,22.80
2018-09-02T10:00:55.410Z,22.80
2018-09-02T10:03:25.275Z,22.80
2018-09-02T10:05:55.154Z,22.80
2018-09-02T10:08:25.018Z,22.80
2018-09-02T10:10:54.889Z,22.80
2018-09-02T10:13:24.754Z,22.80
2018-09-02T10:15:54.630Z,22.80
2018-09-02T10:18:24.502Z,22.90
2018-09-02T10:20:54.371Z,22.90
2018-09-02T10:23:24.246Z,22.90
2018-09-02T10:25:54.127Z,22.90
2018-09-02T10:28:24.018Z,22.90
2018-09-02T10:30:53.912Z,22.90
2018-09-02T10:33:23.788Z,22.90
2018-09-02T10:35:53.626Z,22.90
2018-09-02T10:38:23.504Z,22.90
2018-09-02T10:40:53.380Z,23.00
2018-09-02T10:43:23.222Z,23.00
2018-09-02T10:45:53.083Z,23.00
2018-09-02T10:48:22.998Z,23.00
2018-09-02T10:50:52.871Z,23.10
2018-09-02T10:53:22.738Z,23.10
2018-09-02T10:55:52.662Z,23.10
2018-09-02T10:58:22.530Z,23.10
2018-09-02T11:00:52.400Z,23.20
2018-09-02T11:03:22.969Z,23.20
2018-09-02T11:05:52.828Z,23.20
2018-09-02T11:08:22.695Z,23.20
2018-09-02T11:10:52.647Z,23.30
2018-09-02T11:13:22.527Z,23.30
2018-09-02T11:15:52.397Z,23.30
2018-09-02T11:18:22.496Z,23.30
2018-09-02T11:20:52.346Z,23.40
2018-09-02T11:23:22.208Z,23.40
2018-09-02T11:25:52.079Z,23.40
2018-09-02T11:28:22.326Z,23.40
2018-09-02T11:30:52.182Z,23.40
2018-09-02T11:33:22.060Z,23.40
2018-09-02T11:35:51.944Z,23.50
2018-09-02T11:38:21.863Z,23.50
2018-09-02T11:40:58.438Z,23.50
2018-09-02T11:43:28.299Z,23.50
2018-09-02T11:45:58.167Z,23.50
2018-09-02T11:48:28.026Z,23.50
2018-09-02T11:50:57.891Z,23.50
2018-09-02T11:53:27.819Z,23.50
2018-09-02T11:55:58.006Z,23.60
2018-09-02T11:58:28.574Z,23.60
2018-09-02T12:00:58.879Z,23.60
2018-09-02T12:03:29.508Z,23.60
2018-09-02T12:05:59.368Z,23.60
2018-09-02T12:08:29.235Z,23.60
2018-09-02T12:10:59.479Z,23.60
2018-09-02T12:13:29.353Z,23.70
2018-09-02T12:16:00.250Z,23.70
2018-09-02T12:18:30.179Z,23.70
2018-09-02T12:21:00.703Z,23.70
2018-09-02T12:23:30.568Z,23.70
2018-09-02T12:26:00.573Z,23.70
2018-09-02T12:28:30.446Z,23.70
2018-09-02T12:31:01.218Z,23.70
2018-09-02T12:33:32.087Z,23.70
2018-09-02T12:36:02.460Z,23.80
2018-09-02T12:38:34.860Z,23.80
2018-09-02T12:41:05.416Z,23.80
2018-09-02T12:43:35.682Z,23.80
2018-09-02T12:46:06.249Z,23.80
2018-09-02T12:48:36.326Z,23.80
2018-09-02T12:51:06.465Z,23.80
2018-09-02T12:53:36.516Z,23.80
2018-09-02T12:56:06.587Z,23.80
2018-09-02T12:58:36.459Z,23.80
2018-09-02T13:01:07.450Z,23.80
2018-09-02T13:03:37.328Z,23.90
2018-09-02T13:06:07.202Z,23.90
2018-09-02T13:08:37.058Z,23.90
2018-09-02T13:11:07.680Z,23.90
2018-09-02T13:13:37.555Z,23.90
2018-09-02T13:16:07.416Z,24.00
2018-09-02T13:18:37.270Z,24.00
2018-09-02T13:21:07.122Z,24.00
2018-09-02T13:23:36.992Z,24.00
2018-09-02T13:26:06.923Z,24.10
2018-09-02T13:28:36.822Z,24.10
2018-09-02T13:31:06.758Z,24.10
2018-09-02T13:33:37.467Z,24.10
2018-09-02T13:36:07.314Z,24.10
2018-09-02T13:38:37.230Z,24.10
2018-09-02T13:41:07.106Z,24.10
2018-09-02T13:43:36.966Z,24.10
2018-09-02T13:46:06.827Z,24.10
2018-09-02T13:48:36.791Z,24.10
2018-09-02T13:51:06.654Z,24.10
2018-09-02T13:53:37.050Z,24.10
2018-09-02T13:56:06.923Z,24.10
2018-09-02T13:58:36.795Z,24.10
2018-09-02T14:01:06.760Z,24.10
2018-09-02T14:03:36.532Z,24.10
2018-09-02T14:06:06.394Z,24.10
2018-09-02T14:08:36.367Z,24.10
2018-09-02T14:11:06.230Z,24.10
2018-09-02T14:13:36.088Z,24.10
2018-09-02T14:16:05.944Z,24.10
2018-09-02T14:18:35.798Z,24.10
2018-09-02T14:21:05.690Z,24.00
2018-09-02T14:23:35.580Z,24.00
2018-09-02T14:26:05.588Z,24.00
2018-09-02T14:28:35.452Z,24.00
2018-09-02T14:31:05.327Z,24.00
2018-09-02T14:33:35.203Z,24.00
2018-09-02T14:36:05.410Z,24.00
2018-09-02T14:38:35.374Z,24.00
2018-09-02T14:41:05.372Z,24.00
2018-09-02T14:43:35.302Z,24.00
2018-09-02T14:46:05.163Z,24.00
2018-09-02T14:48:35.034Z,24.00
2018-09-02T14:51:04.898Z,24.00
2018-09-02T14:53:34.784Z,24.00
2018-09-02T14:56:04.664Z,24.00
2018-09-02T14:58:34.564Z,23.90
2018-09-02T15:01:04.430Z,23.90
2018-09-02T15:03:34.409Z,23.90
2018-09-02T15:06:04.454Z,23.90
2018-09-02T15:09:39.683Z,23.90
2018-09-02T15:12:09.552Z,23.90
2018-09-02T15:14:39.452Z,23.90
2018-09-02T15:17:09.315Z,23.80
2018-09-02T15:19:39.178Z,23.80
2018-09-02T15:22:09.039Z,23.80
2018-09-02T15:24:38.924Z,23.80
2018-09-02T15:27:08.901Z,23.80
2018-09-02T15:29:38.777Z,23.80
2018-09-02T15:32:08.703Z,23.80
2018-09-02T15:34:38.579Z,23.80
2018-09-02T15:37:08.493Z,23.80
2018-09-02T15:39:38.370Z,23.90
2018-09-02T15:42:08.231Z,23.90
2018-09-02T15:44:38.231Z,23.90
2018-09-02T15:47:08.134Z,23.90
2018-09-02T15:49:38.046Z,23.90
2018-09-02T15:52:07.891Z,23.90
2018-09-02T15:54:37.810Z,23.90
2018-09-02T15:57:07.728Z,23.80
2018-09-02T15:59:37.586Z,23.80
2018-09-02T16:02:07.452Z,23.80
2018-09-02T16:04:37.392Z,23.80
2018-09-02T16:07:07.250Z,23.80
2018-09-02T16:09:37.101Z,23.80
2018-09-02T16:12:07.076Z,23.80
2018-09-02T16:14:36.943Z,23.80
2018-09-02T16:17:06.842Z,23.80
2018-09-02T16:19:37.052Z,23.80
2018-09-02T16:22:06.999Z,23.80
2018-09-02T16:24:36.952Z,23.80
2018-09-02T16:27:06.814Z,23.80
2018-09-02T16:29:36.722Z,23.80
2018-09-02T16:32:06.913Z,23.80
2018-09-02T16:34:36.829Z,23.80
2018-09-02T16:37:07.732Z,23.80
2018-09-02T16:39:37.878Z,23.80
2018-09-02T16:42:07.753Z,23.80
2018-09-02T16:44:37.644Z,23.80
2018-09-02T16:47:07.930Z,23.80
2018-09-02T16:49:37.770Z,23.80
2018-09-02T16:52:07.625Z,23.80
2018-09-02T16:54:37.486Z,23.80
2018-09-02T16:57:07.351Z,23.80
2018-09-02T16:59:37.249Z,23.80
2018-09-02T17:02:07.356Z,23.80
2018-09-02T17:04:41.550Z,23.80
2018-09-02T17:07:11.482Z,23.80
2018-09-02T17:09:41.598Z,23.80
2018-09-02T17:12:11.834Z,23.70
2018-09-02T17:14:42.394Z,23.70
2018-09-02T17:17:12.356Z,23.70
2018-09-02T17:19:44.820Z,23.70
2018-09-02T17:22:14.707Z,23.70
2018-09-02T17:24:44.626Z,23.70
2018-09-02T17:27:14.487Z,23.70
2018-09-02T17:29:45.394Z,23.70
2018-09-02T17:32:19.181Z,23.70
2018-09-02T17:34:49.533Z,23.70
2018-09-02T17:37:21.462Z,23.70
2018-09-02T17:39:52.511Z,23.70
2018-09-02T17:42:22.480Z,23.70
2018-09-02T17:44:52.723Z,23.70
2018-09-02T17:47:22.692Z,23.70
2018-09-02T17:49:52.602Z,23.70
2018-09-02T17:52:22.494Z,23.70
2018-09-02T17:54:52.367Z,23.70
2018-09-02T17:57:22.510Z,23.70
2018-09-02T17:59:53.651Z,23.70
2018-09-02T18:02:24.625Z,23.70
2018-09-02T18:04:55.154Z,23.70
2018-09-02T18:07:25.071Z,23.70
2018-09-02T18:09:56.004Z,23.70
2018-09-02T18:12:25.859Z,23.70
2018-09-02T18:14:55.739Z,23.70
2018-09-02T18:17:25.622Z,23.70
2018-09-02T18:19:55.474Z,23.70
2018-09-02T18:22:25.331Z,23.70
2018-09-02T18:24:55.319Z,23.60
2018-09-02T18:27:27.590Z,23.60
2018-09-02T18:29:58.774Z,23.60
2018-09-02T18:32:30.881Z,23.60
2018-09-02T18:35:01.288Z,23.60
2018-09-02T18:37:31.162Z,23.60
2018-09-02T18:40:01.024Z,23.60
2018-09-02T18:42:30.883Z,23.60
2018-09-02T18:45:00.731Z,23.60
2018-09-02T18:47:30.621Z,23.60
2018-09-02T18:50:00.475Z,23.60
2018-09-02T18:52:30.347Z,23.60
2018-09-02T18:55:00.201Z,23.60
2018-09-02T18:57:30.063Z,23.60
2018-09-02T18:59:59.908Z,23.60
2018-09-02T19:02:29.801Z,23.60
2018-09-02T19:05:00.379Z,23.60
2018-09-02T19:07:30.956Z,23.60
2018-09-02T19:10:00.826Z,23.60
2018-09-02T19:12:37.414Z,23.60
2018-09-02T19:15:08.435Z,23.60
2018-09-02T19:17:38.333Z,23.60
2018-09-02T19:20:08.508Z,23.50
2018-09-02T19:22:38.407Z,23.50
2018-09-02T19:25:08.339Z,23.50
2018-09-02T19:27:38.250Z,23.50
2018-09-02T19:30:08.415Z,23.50
2018-09-02T19:32:38.294Z,23.50
2018-09-02T19:35:08.179Z,23.50
2018-09-02T19:37:38.089Z,23.50
2018-09-02T19:40:08.206Z,23.50
2018-09-02T19:42:38.085Z,23.50
2018-09-02T19:45:08.334Z,23.50
2018-09-02T19:47:38.228Z,23.50
2018-09-02T19:50:08.249Z,23.50
2018-09-02T19:52:40.935Z,23.50
2018-09-02T19:55:10.816Z,23.50
2018-09-02T19:57:40.694Z,23.50
2018-09-02T20:00:11.825Z,23.50
2018-09-02T20:02:41.754Z,23.50
2018-09-02T20:05:12.018Z,23.50
2018-09-02T20:07:41.915Z,23.50
2018-09-02T20:10:11.798Z,23.50
2018-09-02T20:12:41.670Z,23.50
2018-09-02T20:15:11.553Z,23.50
2018-09-02T20:17:41.424Z,23.50
2018-09-02T20:20:11.310Z,23.50
2018-09-02T20:22:41.198Z,23.50
2018-09-02T20:25:11.111Z,23.50
2018-09-02T20:27:41.044Z,23.50
2018-09-02T20:30:10.913Z,23.50
2018-09-02T20:32:40.812Z,23.50
2018-09-02T20:35:10.720Z,23.50
2018-09-02T20:37:40.683Z,23.50
2018-09-02T20:40:10.588Z,23.50
2018-09-02T20:42:40.467Z,23.40
2018-09-02T20:45:10.341Z,23.40
2018-09-02T20:47:40.223Z,23.40
2018-09-02T20:50:10.097Z,23.40
2018-09-02T20:52:40.031Z,23.40
2018-09-02T20:55:09.916Z,23.40
2018-09-02T20:57:39.794Z,23.40
2018-09-02T21:00:09.666Z,23.40
2018-09-02T21:02:39.577Z,23.40
2018-09-02T21:05:09.407Z,23.40
2018-09-02T21:07:39.256Z,23.40
2018-09-02T21:10:09.108Z,23.40
2018-09-02T21:12:38.970Z,23.40
2018-09-02T21:15:08.826Z,23.40
2018-09-02T21:17:38.674Z,23.40
2018-09-02T21:20:08.527Z,23.40
2018-09-02T21:22:38.370Z,23.40
2018-09-02T21:25:08.802Z,23.40
2018-09-02T21:27:38.651Z,23.40
2018-09-02T21:30:08.557Z,23.40
2018-09-02T21:32:38.400Z,23.30
2018-09-02T21:35:08.251Z,23.40
2018-09-02T21:37:38.096Z,23.40
2018-09-02T21:40:07.949Z,23.40
2018-09-02T21:42:37.804Z,23.40
2018-09-02T21:45:07.800Z,23.40
2018-09-02T21:47:37.637Z,23.40
2018-09-02T21:50:07.583Z,23.30
2018-09-02T21:52:37.445Z,23.30
2018-09-02T21:55:07.442Z,23.30
2018-09-02T21:57:37.278Z,23.30
2018-09-02T22:00:11.451Z,23.30
2018-09-02T22:02:41.312Z,23.30
2018-09-02T22:05:13.702Z,23.30
2018-09-02T22:07:43.719Z,23.30
2018-09-02T22:10:13.614Z,23.30
2018-09-02T22:12:43.483Z,23.30
2018-09-02T22:15:13.367Z,23.30
2018-09-02T22:17:43.267Z,23.30
2018-09-02T22:20:13.138Z,23.30
2018-09-02T22:22:43.021Z,23.30
2018-09-02T22:25:12.894Z,23.30
2018-09-02T22:27:42.763Z,23.20
2018-09-02T22:30:12.750Z,23.20
2018-09-02T22:32:42.623Z,23.20
2018-09-02T22:35:12.502Z,23.20
2018-09-02T22:37:42.383Z,23.20
2018-09-02T22:40:12.266Z,23.20
2018-09-02T22:42:42.133Z,23.20
2018-09-02T22:45:12.018Z,23.20
2018-09-02T22:47:41.895Z,23.20
2018-09-02T22:50:11.786Z,23.20
2018-09-02T22:52:41.650Z,23.20
2018-09-02T22:55:11.535Z,23.20
2018-09-02T22:57:41.421Z,23.20
2018-09-02T23:00:11.304Z,23.20
2018-09-02T23:02:41.183Z,23.20
2018-09-02T23:05:11.075Z,23.20
2018-09-02T23:07:40.955Z,23.20
2018-09-02T23:10:10.845Z,23.20
2018-09-02T23:12:40.715Z,23.20
2018-09-02T23:15:10.607Z,23.20
2018-09-02T23:17:40.487Z,23.20
2018-09-02T23:20:10.373Z,23.20
2018-09-02T23:22:40.251Z,23.20
2018-09-02T23:25:10.123Z,23.20
2018-09-02T23:27:40.012Z,23.20
2018-09-02T23:30:09.883Z,23.20
2018-09-02T23:32:39.756Z,23.20
2018-09-02T23:35:09.634Z,23.20
2018-09-02T23:37:39.562Z,23.20
2018-09-02T23:40:09.437Z,23.20
2018-09-02T23:42:39.321Z,23.20
2018-09-02T23:45:09.208Z,23.20
2018-09-02T23:47:39.090Z,23.20
2018-09-02T23:50:09.015Z,23.20
2018-09-02T23:52:38.905Z,23.20
2018-09-02T23:55:08.779Z,23.10
2018-09-02T23:57:38.647Z,23.10
